Wetterdaten: Woche 23.07.07 - 29.07.07 (KW30)
Datum Zeit Temperatur Luftfeuchte Luftdruck Niederschlag Wind Richtung Sonnenschein Solar Taupunkt Windchill Windben
23.07.2007 00:00 14.2 C 91 % 1012.0 hPa 0.0 l/m 0.4 km/h (0 Bft) SO 0.00 h 0 W/m 12.8 C 14.2 C 0.9 km/h (0 Bft)
23.07.2007 01:00 13.5 C 95 % 1011.4 hPa 0.0 l/m 0.9 km/h (0 Bft) O-SO 0.00 h 0 W/m 12.6 C 13.5 C 1.6 km/h (1 Bft)
23.07.2007 02:00 12.9 C 96 % 1010.8 hPa 0.0 l/m 0.3 km/h (0 Bft) O-SO 0.00 h 0 W/m 12.3 C 12.9 C 0.8 km/h (0 Bft)
23.07.2007 03:00 12.4 C 96 % 1009.7 hPa 0.0 l/m 0.4 km/h (0 Bft) O-SO 0.00 h 0 W/m 11.9 C 12.4 C 0.9 km/h (0 Bft)
23.07.2007 04:00 12.0 C 97 % 1009.2 hPa 0.0 l/m 0.2 km/h (0 Bft) O-SO 0.00 h 0 W/m 11.6 C 12.0 C 0.6 km/h (0 Bft)
23.07.2007 05:00 11.7 C 98 % 1008.7 hPa 0.0 l/m 0.1 km/h (0 Bft) O-SO 0.00 h 6 W/m 11.3 C 11.7 C 0.6 km/h (0 Bft)
23.07.2007 06:00 11.8 C 98 % 1008.3 hPa 0.0 l/m 0.6 km/h (0 Bft) W 0.20 h 43 W/m 11.5 C 11.8 C 1.2 km/h (1 Bft)
23.07.2007 07:00 12.8 C 97 % 1007.8 hPa 0.0 l/m 0.8 km/h (0 Bft) W-NW 0.22 h 122 W/m 12.4 C 12.8 C 1.9 km/h (1 Bft)
23.07.2007 08:00 14.9 C 88 % 1006.9 hPa 0.0 l/m 0.8 km/h (0 Bft) W-NW 0.67 h 288 W/m 12.9 C 14.9 C 2.1 km/h (1 Bft)
23.07.2007 09:00 18.3 C 77 % 1006.0 hPa 0.0 l/m 2.4 km/h (1 Bft) N-NW 1.00 h 518 W/m 14.2 C 18.3 C 4.8 km/h (1 Bft)
23.07.2007 10:00 20.5 C 71 % 1004.8 hPa 0.0 l/m 1.9 km/h (1 Bft) O-NO 1.00 h 624 W/m 15.0 C 20.5 C 4.4 km/h (1 Bft)
23.07.2007 11:00 22.4 C 67 % 1003.6 hPa 0.0 l/m 3.1 km/h (1 Bft) O-SO 0.95 h 705 W/m 16.0 C 22.4 C 6.0 km/h (2 Bft)
23.07.2007 12:00 23.9 C 61 % 1002.6 hPa 0.0 l/m 3.9 km/h (1 Bft) O-SO 0.77 h 632 W/m 15.8 C 23.9 C 7.0 km/h (2 Bft)
23.07.2007 13:00 25.2 C 59 % 1001.3 hPa 0.0 l/m 4.9 km/h (1 Bft) O-SO 0.92 h 748 W/m 16.4 C 25.2 C 8.7 km/h (2 Bft)
23.07.2007 14:00 26.2 C 58 % 1000.4 hPa 0.0 l/m 1.8 km/h (1 Bft) O-SO 0.50 h 545 W/m 17.3 C 26.2 C 3.9 km/h (1 Bft)
23.07.2007 15:00 25.1 C 64 % 999.9 hPa 0.0 l/m 2.3 km/h (1 Bft) W-NW 0.00 h 207 W/m 17.8 C 25.1 C 3.9 km/h (1 Bft)
23.07.2007 16:00 23.9 C 67 % 1000.5 hPa 0.0 l/m 8.4 km/h (2 Bft) W-NW 0.00 h 94 W/m 17.3 C 23.9 C 12.7 km/h (3 Bft)
23.07.2007 17:00 21.7 C 77 % 1001.3 hPa 0.4 l/m 6.4 km/h (2 Bft) W-NW 0.00 h 33 W/m 17.4 C 21.7 C 10.5 km/h (2 Bft)
23.07.2007 18:00 18.2 C 88 % 1004.2 hPa 1.2 l/m 14.7 km/h (3 Bft) W 0.00 h 22 W/m 16.1 C 18.2 C 21.8 km/h (4 Bft)
23.07.2007 19:00 16.9 C 96 % 1004.7 hPa 3.6 l/m 6.2 km/h (2 Bft) W 0.00 h 7 W/m 16.2 C 16.9 C 10.4 km/h (2 Bft)
23.07.2007 20:00 16.0 C 98 % 1004.8 hPa 3.8 l/m 8.6 km/h (2 Bft) W 0.00 h 0 W/m 15.6 C 16.0 C 13.4 km/h (3 Bft)
23.07.2007 21:00 15.2 C 98 % 1005.2 hPa 3.4 l/m 2.2 km/h (1 Bft) W-NW 0.00 h 0 W/m 14.9 C 15.2 C 4.1 km/h (1 Bft)
23.07.2007 22:00 15.3 C 98 % 1006.0 hPa 4.2 l/m 1.0 km/h (0 Bft) SO 0.00 h 0 W/m 15.0 C 15.3 C 2.3 km/h (1 Bft)
23.07.2007 23:00 15.6 C 99 % 1006.6 hPa 0.4 l/m 2.0 km/h (1 Bft) S-SO 0.00 h 0 W/m 15.4 C 15.6 C 4.6 km/h (1 Bft)
24.07.2007 00:00 15.3 C 96 % 1006.4 hPa 0.0 l/m 3.7 km/h (1 Bft) W 0.00 h 0 W/m 14.7 C 15.3 C 7.6 km/h (2 Bft)
24.07.2007 01:00 14.4 C 97 % 1006.2 hPa 0.0 l/m 3.1 km/h (1 Bft) W-SW 0.00 h 0 W/m 14.0 C 14.4 C 6.6 km/h (2 Bft)
24.07.2007 02:00 14.5 C 88 % 1005.7 hPa 0.0 l/m 2.6 km/h (1 Bft) S-SO 0.00 h 0 W/m 12.6 C 14.5 C 5.6 km/h (1 Bft)
24.07.2007 03:00 14.2 C 92 % 1005.6 hPa 0.0 l/m 1.3 km/h (1 Bft) O-SO 0.00 h 0 W/m 12.9 C 14.2 C 2.8 km/h (1 Bft)
24.07.2007 04:00 13.9 C 95 % 1005.6 hPa 0.0 l/m 2.0 km/h (1 Bft) S-SO 0.00 h 0 W/m 13.2 C 13.9 C 4.5 km/h (1 Bft)
24.07.2007 05:00 13.9 C 96 % 1005.4 hPa 0.0 l/m 2.5 km/h (1 Bft) W-SW 0.00 h 0 W/m 13.3 C 13.9 C 6.1 km/h (2 Bft)
24.07.2007 06:00 14.0 C 96 % 1005.2 hPa 0.0 l/m 1.9 km/h (1 Bft) W-SW 0.00 h 26 W/m 13.4 C 14.0 C 4.6 km/h (1 Bft)
24.07.2007 07:00 14.8 C 94 % 1005.2 hPa 0.0 l/m 1.8 km/h (1 Bft) SW 0.15 h 102 W/m 13.9 C 14.8 C 4.2 km/h (1 Bft)
24.07.2007 08:00 15.0 C 95 % 1005.2 hPa 0.0 l/m 1.8 km/h (1 Bft) W 0.00 h 93 W/m 14.3 C 15.0 C 3.5 km/h (1 Bft)
24.07.2007 09:00 16.2 C 86 % 1005.9 hPa 0.2 l/m 8.2 km/h (2 Bft) W 0.00 h 165 W/m 13.8 C 16.2 C 12.9 km/h (3 Bft)
24.07.2007 10:00 16.3 C 83 % 1007.1 hPa 0.0 l/m 8.8 km/h (2 Bft) W-NW 0.00 h 135 W/m 13.3 C 16.3 C 13.0 km/h (3 Bft)
24.07.2007 11:00 16.2 C 91 % 1008.2 hPa 3.0 l/m 5.4 km/h (1 Bft) W 0.42 h 408 W/m 14.7 C 16.2 C 9.2 km/h (2 Bft)
24.07.2007 12:00 17.1 C 92 % 1008.8 hPa 4.8 l/m 7.9 km/h (2 Bft) W 0.53 h 552 W/m 15.8 C 17.1 C 13.4 km/h (3 Bft)
24.07.2007 13:00 18.5 C 87 % 1009.3 hPa 0.0 l/m 5.3 km/h (1 Bft) W-SW 0.15 h 453 W/m 16.3 C 18.5 C 9.4 km/h (2 Bft)
24.07.2007 14:00 17.8 C 82 % 1010.1 hPa 0.4 l/m 13.2 km/h (3 Bft) W 0.12 h 303 W/m 14.6 C 17.8 C 20.1 km/h (4 Bft)
24.07.2007 15:00 18.5 C 81 % 1011.1 hPa 0.0 l/m 9.1 km/h (2 Bft) W 0.27 h 417 W/m 15.1 C 18.5 C 13.9 km/h (3 Bft)
24.07.2007 16:00 18.0 C 87 % 1011.7 hPa 2.2 l/m 3.2 km/h (1 Bft) W-SW 0.05 h 189 W/m 15.9 C 18.0 C 6.2 km/h (2 Bft)
24.07.2007 17:00 17.0 C 94 % 1012.4 hPa 1.4 l/m 4.7 km/h (1 Bft) W 0.18 h 256 W/m 16.0 C 17.0 C 8.4 km/h (2 Bft)
24.07.2007 18:00 17.7 C 85 % 1012.6 hPa 0.0 l/m 11.0 km/h (2 Bft) W 0.32 h 241 W/m 15.0 C 17.7 C 16.8 km/h (3 Bft)
24.07.2007 19:00 16.6 C 87 % 1013.7 hPa 0.2 l/m 12.6 km/h (3 Bft) W 0.13 h 71 W/m 14.4 C 16.6 C 19.5 km/h (3 Bft)
24.07.2007 20:00 16.0 C 87 % 1014.5 hPa 0.0 l/m 11.0 km/h (2 Bft) W 0.00 h 33 W/m 13.9 C 16.0 C 16.9 km/h (3 Bft)
24.07.2007 21:00 15.6 C 89 % 1015.5 hPa 0.0 l/m 4.0 km/h (1 Bft) W 0.00 h 7 W/m 13.7 C 15.6 C 6.5 km/h (2 Bft)
24.07.2007 22:00 14.9 C 90 % 1016.8 hPa 0.0 l/m 2.1 km/h (1 Bft) S-SO 0.00 h 0 W/m 13.3 C 14.9 C 4.4 km/h (1 Bft)
24.07.2007 23:00 14.5 C 89 % 1017.5 hPa 0.0 l/m 1.6 km/h (1 Bft) S-SO 0.00 h 0 W/m 12.7 C 14.5 C 3.5 km/h (1 Bft)
25.07.2007 00:00 13.7 C 92 % 1018.0 hPa 0.0 l/m 2.5 km/h (1 Bft) SO 0.00 h 0 W/m 12.4 C 13.7 C 3.9 km/h (1 Bft)
25.07.2007 01:00 13.3 C 94 % 1018.2 hPa 0.0 l/m 3.7 km/h (1 Bft) SO 0.00 h 0 W/m 12.4 C 13.3 C 5.1 km/h (1 Bft)
25.07.2007 02:00 12.8 C 96 % 1018.3 hPa 0.0 l/m 2.8 km/h (1 Bft) O-SO 0.00 h 0 W/m 12.2 C 12.8 C 3.9 km/h (1 Bft)
25.07.2007 03:00 12.3 C 98 % 1018.4 hPa 0.0 l/m 0.4 km/h (0 Bft) O-SO 0.00 h 0 W/m 11.9 C 12.3 C 0.7 km/h (0 Bft)
25.07.2007 04:00 12.3 C 99 % 1018.4 hPa 0.0 l/m 0.2 km/h (0 Bft) O-SO 0.00 h 0 W/m 12.1 C 12.3 C 0.4 km/h (0 Bft)
25.07.2007 05:00 12.1 C 100 % 1018.4 hPa 0.0 l/m 0.2 km/h (0 Bft) O-SO 0.00 h 5 W/m 12.1 C 12.1 C 0.7 km/h (0 Bft)
25.07.2007 06:00 12.5 C 100 % 1018.5 hPa 0.0 l/m 0.6 km/h (0 Bft) O-SO 0.03 h 17 W/m 12.5 C 12.5 C 1.4 km/h (1 Bft)
25.07.2007 07:00 12.9 C 100 % 1018.9 hPa 0.0 l/m 0.5 km/h (0 Bft) W 0.00 h 47 W/m 12.9 C 12.9 C 1.3 km/h (1 Bft)
25.07.2007 08:00 13.7 C 98 % 1019.1 hPa 0.2 l/m 0.2 km/h (0 Bft) W 0.00 h 133 W/m 13.4 C 13.7 C 0.8 km/h (0 Bft)
25.07.2007 09:00 15.5 C 91 % 1019.1 hPa 0.0 l/m 1.8 km/h (1 Bft) SO 0.38 h 343 W/m 14.0 C 15.5 C 3.7 km/h (1 Bft)
25.07.2007 10:00 18.2 C 81 % 1018.7 hPa 0.0 l/m 2.6 km/h (1 Bft) S-SO 1.00 h 643 W/m 14.8 C 18.2 C 4.8 km/h (1 Bft)
25.07.2007 11:00 20.1 C 74 % 1018.3 hPa 0.0 l/m 1.8 km/h (1 Bft) O-SO 0.88 h 715 W/m 15.3 C 20.1 C 3.9 km/h (1 Bft)
25.07.2007 12:00 21.5 C 67 % 1017.8 hPa 0.0 l/m 1.9 km/h (1 Bft) W 0.97 h 821 W/m 15.0 C 21.5 C 4.1 km/h (1 Bft)
25.07.2007 13:00 22.3 C 59 % 1017.4 hPa 0.0 l/m 2.6 km/h (1 Bft) W 0.82 h 748 W/m 13.9 C 22.3 C 4.8 km/h (1 Bft)
25.07.2007 14:00 23.8 C 52 % 1016.7 hPa 0.0 l/m 3.5 km/h (1 Bft) W 1.00 h 834 W/m 13.3 C 23.8 C 5.9 km/h (2 Bft)
25.07.2007 15:00 24.8 C 43 % 1016.4 hPa 0.0 l/m 4.5 km/h (1 Bft) W 1.00 h 766 W/m 11.3 C 24.8 C 7.2 km/h (2 Bft)
25.07.2007 16:00 25.4 C 38 % 1016.1 hPa 0.0 l/m 4.9 km/h (1 Bft) W 1.00 h 654 W/m 10.1 C 25.4 C 7.7 km/h (2 Bft)
25.07.2007 17:00 25.3 C 40 % 1015.7 hPa 0.0 l/m 7.1 km/h (2 Bft) W 1.00 h 503 W/m 10.7 C 25.3 C 10.9 km/h (2 Bft)
25.07.2007 18:00 25.0 C 44 % 1015.4 hPa 0.0 l/m 6.8 km/h (2 Bft) W 1.00 h 341 W/m 11.7 C 25.0 C 9.9 km/h (2 Bft)
25.07.2007 19:00 24.2 C 46 % 1015.4 hPa 0.0 l/m 3.8 km/h (1 Bft) W 1.00 h 179 W/m 11.8 C 24.2 C 6.1 km/h (2 Bft)
25.07.2007 20:00 22.4 C 56 % 1015.6 hPa 0.0 l/m 1.1 km/h (1 Bft) W-SW 0.55 h 59 W/m 13.1 C 22.4 C 2.6 km/h (1 Bft)
25.07.2007 21:00 19.2 C 72 % 1015.9 hPa 0.0 l/m 0.7 km/h (0 Bft) SO 0.00 h 5 W/m 14.0 C 19.2 C 1.4 km/h (1 Bft)
25.07.2007 22:00 17.3 C 79 % 1016.4 hPa 0.0 l/m 0.4 km/h (0 Bft) O 0.00 h 0 W/m 13.7 C 17.3 C 1.0 km/h (0 Bft)
25.07.2007 23:00 16.0 C 85 % 1016.6 hPa 0.0 l/m 0.3 km/h (0 Bft) O 0.00 h 0 W/m 13.5 C 16.0 C 0.9 km/h (0 Bft)
26.07.2007 00:00 15.3 C 87 % 1016.6 hPa 0.0 l/m 0.4 km/h (0 Bft) O 0.00 h 0 W/m 13.2 C 15.3 C 1.0 km/h (0 Bft)
26.07.2007 01:00 14.9 C 90 % 1016.6 hPa 0.0 l/m 0.6 km/h (0 Bft) O 0.00 h 0 W/m 13.2 C 14.9 C 1.2 km/h (1 Bft)
26.07.2007 02:00 13.9 C 93 % 1016.5 hPa 0.0 l/m 0.3 km/h (0 Bft) N-NO 0.00 h 0 W/m 12.8 C 13.9 C 0.9 km/h (0 Bft)
26.07.2007 03:00 13.5 C 95 % 1016.2 hPa 0.0 l/m 0.0 km/h (0 Bft) N 0.00 h 0 W/m 12.6 C 13.5 C 0.0 km/h (0 Bft)
26.07.2007 04:00 12.8 C 96 % 1016.1 hPa 0.0 l/m 0.0 km/h (0 Bft) N 0.00 h 0 W/m 12.3 C 12.8 C 0.0 km/h (0 Bft)
26.07.2007 05:00 12.2 C 97 % 1016.4 hPa 0.0 l/m 0.0 km/h (0 Bft) N 0.00 h 5 W/m 11.8 C 12.2 C 0.0 km/h (0 Bft)
26.07.2007 06:00 12.1 C 97 % 1016.6 hPa 0.0 l/m 0.0 km/h (0 Bft) N 0.02 h 19 W/m 11.7 C 12.1 C 0.0 km/h (0 Bft)
26.07.2007 07:00 13.0 C 96 % 1016.7 hPa 0.0 l/m 0.0 km/h (0 Bft) N 0.63 h 135 W/m 12.3 C 13.0 C 0.0 km/h (0 Bft)
26.07.2007 08:00 15.2 C 87 % 1016.7 hPa 0.0 l/m 0.0 km/h (0 Bft) N 1.00 h 320 W/m 13.0 C 15.2 C 0.0 km/h (0 Bft)
26.07.2007 09:00 17.7 C 80 % 1016.6 hPa 0.0 l/m 0.0 km/h (0 Bft) N 1.00 h 480 W/m 14.2 C 17.7 C 0.0 km/h (0 Bft)
26.07.2007 10:00 20.4 C 72 % 1016.1 hPa 0.0 l/m 2.2 km/h (1 Bft) W-NW 1.00 h 622 W/m 15.2 C 20.4 C 3.3 km/h (1 Bft)
26.07.2007 11:00 22.4 C 67 % 1015.6 hPa 0.0 l/m 2.2 km/h (1 Bft) W-NW 1.00 h 733 W/m 15.8 C 22.4 C 4.1 km/h (1 Bft)
26.07.2007 12:00 24.0 C 58 % 1014.9 hPa 0.0 l/m 1.2 km/h (1 Bft) W 1.00 h 811 W/m 15.2 C 24.0 C 3.1 km/h (1 Bft)
26.07.2007 13:00 25.1 C 50 % 1014.2 hPa 0.0 l/m 2.0 km/h (1 Bft) W-NW 1.00 h 837 W/m 13.9 C 25.1 C 4.2 km/h (1 Bft)
26.07.2007 14:00 26.0 C 45 % 1013.4 hPa 0.0 l/m 2.6 km/h (1 Bft) W 1.00 h 811 W/m 13.3 C 26.0 C 5.0 km/h (1 Bft)
26.07.2007 15:00 27.2 C 46 % 1012.7 hPa 0.0 l/m 2.9 km/h (1 Bft) W 1.00 h 741 W/m 14.4 C 27.2 C 5.3 km/h (1 Bft)
26.07.2007 16:00 28.0 C 43 % 1012.4 hPa 0.0 l/m 3.8 km/h (1 Bft) W-NW 1.00 h 632 W/m 14.3 C 28.0 C 5.9 km/h (2 Bft)
26.07.2007 17:00 28.1 C 40 % 1012.0 hPa 0.0 l/m 2.9 km/h (1 Bft) W 1.00 h 491 W/m 13.0 C 28.1 C 4.9 km/h (1 Bft)
26.07.2007 18:00 28.0 C 42 % 1011.6 hPa 0.0 l/m 3.1 km/h (1 Bft) W 1.00 h 328 W/m 13.8 C 28.0 C 5.1 km/h (1 Bft)
26.07.2007 19:00 27.1 C 49 % 1011.6 hPa 0.0 l/m 4.0 km/h (1 Bft) W 0.63 h 162 W/m 15.5 C 27.1 C 6.4 km/h (2 Bft)
26.07.2007 20:00 24.9 C 57 % 1012.0 hPa 0.0 l/m 6.6 km/h (2 Bft) W 0.00 h 34 W/m 15.8 C 24.9 C 9.9 km/h (2 Bft)
26.07.2007 21:00 22.7 C 68 % 1012.4 hPa 0.0 l/m 3.9 km/h (1 Bft) O-SO 0.00 h 5 W/m 16.4 C 22.7 C 6.1 km/h (2 Bft)
26.07.2007 22:00 21.1 C 75 % 1012.7 hPa 0.0 l/m 2.6 km/h (1 Bft) O-SO 0.00 h 0 W/m 16.4 C 21.1 C 4.4 km/h (1 Bft)
26.07.2007 23:00 19.8 C 79 % 1013.0 hPa 0.0 l/m 1.8 km/h (1 Bft) O-SO 0.00 h 0 W/m 16.2 C 19.8 C 3.0 km/h (1 Bft)
27.07.2007 00:00 18.7 C 84 % 1013.4 hPa 0.0 l/m 1.5 km/h (1 Bft) O-SO 0.00 h 0 W/m 15.9 C 18.7 C 2.7 km/h (1 Bft)
27.07.2007 01:00 17.8 C 88 % 1013.6 hPa 0.0 l/m 1.1 km/h (1 Bft) O 0.00 h 0 W/m 15.7 C 17.8 C 2.0 km/h (1 Bft)
27.07.2007 02:00 17.1 C 93 % 1013.4 hPa 0.0 l/m 0.3 km/h (0 Bft) O-SO 0.00 h 0 W/m 16.0 C 17.1 C 0.7 km/h (0 Bft)
27.07.2007 03:00 17.6 C 90 % 1013.5 hPa 0.0 l/m 0.4 km/h (0 Bft) O-SO 0.00 h 0 W/m 15.9 C 17.6 C 1.2 km/h (1 Bft)
27.07.2007 04:00 18.0 C 90 % 1013.9 hPa 0.2 l/m 3.0 km/h (1 Bft) SO 0.00 h 0 W/m 16.2 C 18.0 C 5.2 km/h (1 Bft)
27.07.2007 05:00 17.9 C 89 % 1014.3 hPa 0.0 l/m 1.2 km/h (1 Bft) S-SO 0.00 h 0 W/m 16.0 C 17.9 C 3.3 km/h (1 Bft)
27.07.2007 06:00 17.6 C 89 % 1015.1 hPa 0.0 l/m 1.2 km/h (1 Bft) S-SO 0.00 h 22 W/m 15.7 C 17.6 C 3.3 km/h (1 Bft)
27.07.2007 07:00 18.5 C 81 % 1015.9 hPa 0.0 l/m 6.7 km/h (2 Bft) W 0.00 h 73 W/m 15.1 C 18.5 C 10.4 km/h (2 Bft)
27.07.2007 08:00 19.9 C 73 % 1016.3 hPa 0.0 l/m 10.5 km/h (2 Bft) W 0.73 h 275 W/m 14.8 C 19.9 C 16.0 km/h (3 Bft)
27.07.2007 09:00 21.1 C 66 % 1016.7 hPa 0.0 l/m 13.3 km/h (3 Bft) W 0.97 h 460 W/m 14.6 C 21.1 C 20.6 km/h (4 Bft)
27.07.2007 10:00 22.1 C 60 % 1017.2 hPa 0.0 l/m 12.6 km/h (3 Bft) W 1.00 h 616 W/m 14.1 C 22.1 C 18.4 km/h (3 Bft)
27.07.2007 11:00 23.2 C 58 % 1017.3 hPa 0.0 l/m 11.6 km/h (2 Bft) W 0.98 h 717 W/m 14.3 C 23.2 C 17.3 km/h (3 Bft)
27.07.2007 12:00 24.1 C 54 % 1017.4 hPa 0.0 l/m 11.5 km/h (2 Bft) W 1.00 h 799 W/m 14.3 C 24.1 C 17.7 km/h (3 Bft)
27.07.2007 13:00 24.9 C 53 % 1017.3 hPa 0.0 l/m 11.0 km/h (2 Bft) W-NW 1.00 h 822 W/m 14.6 C 24.9 C 16.5 km/h (3 Bft)
27.07.2007 14:00 25.7 C 52 % 1016.9 hPa 0.0 l/m 9.0 km/h (2 Bft) W-NW 1.00 h 792 W/m 15.1 C 25.7 C 13.9 km/h (3 Bft)
27.07.2007 15:00 26.4 C 50 % 1016.6 hPa 0.0 l/m 9.9 km/h (2 Bft) W 1.00 h 731 W/m 15.2 C 26.4 C 15.0 km/h (3 Bft)
27.07.2007 16:00 26.2 C 50 % 1016.3 hPa 0.0 l/m 13.1 km/h (3 Bft) W 1.00 h 622 W/m 14.8 C 26.2 C 19.1 km/h (3 Bft)
27.07.2007 17:00 26.1 C 50 % 1016.2 hPa 0.0 l/m 13.1 km/h (3 Bft) W 1.00 h 484 W/m 14.7 C 26.1 C 19.4 km/h (3 Bft)
27.07.2007 18:00 25.8 C 50 % 1016.2 hPa 0.0 l/m 12.0 km/h (2 Bft) W 1.00 h 323 W/m 14.5 C 25.8 C 17.9 km/h (3 Bft)
27.07.2007 19:00 24.8 C 52 % 1016.2 hPa 0.0 l/m 8.6 km/h (2 Bft) W-NW 0.68 h 157 W/m 14.3 C 24.8 C 13.3 km/h (3 Bft)
27.07.2007 20:00 23.1 C 57 % 1016.6 hPa 0.0 l/m 6.4 km/h (2 Bft) W 0.00 h 32 W/m 14.0 C 23.1 C 9.8 km/h (2 Bft)
27.07.2007 21:00 22.1 C 58 % 1017.2 hPa 0.0 l/m 7.3 km/h (2 Bft) W-NW 0.00 h 5 W/m 13.5 C 22.1 C 10.5 km/h (2 Bft)
27.07.2007 22:00 21.8 C 57 % 1017.4 hPa 0.0 l/m 5.8 km/h (2 Bft) W-NW 0.00 h 0 W/m 12.8 C 21.8 C 9.4 km/h (2 Bft)
27.07.2007 23:00 20.6 C 66 % 1017.3 hPa 0.0 l/m 3.9 km/h (1 Bft) O-SO 0.00 h 0 W/m 14.0 C 20.6 C 5.4 km/h (1 Bft)
28.07.2007 00:00 19.8 C 70 % 1017.4 hPa 0.0 l/m 3.0 km/h (1 Bft) O-SO 0.00 h 0 W/m 14.1 C 19.8 C 4.2 km/h (1 Bft)
28.07.2007 01:00 18.5 C 76 % 1017.3 hPa 0.0 l/m 4.2 km/h (1 Bft) O-SO 0.00 h 0 W/m 14.2 C 18.5 C 5.4 km/h (1 Bft)
28.07.2007 02:00 17.0 C 83 % 1017.2 hPa 0.0 l/m 1.0 km/h (0 Bft) O-SO 0.00 h 0 W/m 14.1 C 17.0 C 1.5 km/h (1 Bft)
28.07.2007 03:00 16.4 C 85 % 1017.1 hPa 0.0 l/m 0.5 km/h (0 Bft) O-SO 0.00 h 0 W/m 13.9 C 16.4 C 1.3 km/h (1 Bft)
28.07.2007 04:00 15.8 C 89 % 1016.9 hPa 0.0 l/m 0.2 km/h (0 Bft) O-SO 0.00 h 0 W/m 13.9 C 15.8 C 0.7 km/h (0 Bft)
28.07.2007 05:00 15.6 C 92 % 1016.9 hPa 0.0 l/m 0.0 km/h (0 Bft) N 0.00 h 0 W/m 14.2 C 15.6 C 0.0 km/h (0 Bft)
28.07.2007 06:00 15.8 C 91 % 1017.0 hPa 0.0 l/m 0.0 km/h (0 Bft) N 0.00 h 14 W/m 14.3 C 15.8 C 0.1 km/h (0 Bft)
28.07.2007 07:00 16.5 C 89 % 1017.2 hPa 0.0 l/m 0.0 km/h (0 Bft) N 0.00 h 63 W/m 14.7 C 16.5 C 0.2 km/h (0 Bft)
28.07.2007 08:00 18.3 C 84 % 1017.3 hPa 0.0 l/m 1.4 km/h (1 Bft) S-SO 0.00 h 147 W/m 15.6 C 18.3 C 3.7 km/h (1 Bft)
28.07.2007 09:00 20.3 C 75 % 1017.3 hPa 0.0 l/m 3.3 km/h (1 Bft) S-SO 0.48 h 375 W/m 15.7 C 20.3 C 6.9 km/h (2 Bft)
28.07.2007 10:00 22.8 C 61 % 1016.8 hPa 0.0 l/m 12.4 km/h (3 Bft) W 0.78 h 626 W/m 14.8 C 22.8 C 19.6 km/h (3 Bft)
28.07.2007 11:00 22.9 C 60 % 1017.0 hPa 0.0 l/m 12.9 km/h (3 Bft) W 0.28 h 489 W/m 14.7 C 22.9 C 19.7 km/h (3 Bft)
28.07.2007 12:00 23.1 C 60 % 1017.2 hPa 0.0 l/m 13.3 km/h (3 Bft) W 0.13 h 431 W/m 14.8 C 23.1 C 20.3 km/h (4 Bft)
28.07.2007 13:00 24.7 C 57 % 1017.0 hPa 0.0 l/m 17.2 km/h (3 Bft) W 1.00 h 886 W/m 15.5 C 24.7 C 26.1 km/h (4 Bft)
28.07.2007 14:00 25.2 C 53 % 1017.2 hPa 0.0 l/m 18.1 km/h (3 Bft) W 1.00 h 837 W/m 14.8 C 25.2 C 26.7 km/h (4 Bft)
28.07.2007 15:00 25.2 C 50 % 1017.3 hPa 0.0 l/m 20.4 km/h (4 Bft) W-NW 0.90 h 733 W/m 14.0 C 25.2 C 30.2 km/h (5 Bft)
28.07.2007 16:00 25.0 C 50 % 1017.5 hPa 0.0 l/m 19.0 km/h (3 Bft) W-NW 0.50 h 479 W/m 13.9 C 25.0 C 27.1 km/h (4 Bft)
28.07.2007 17:00 24.7 C 51 % 1017.6 hPa 0.0 l/m 20.1 km/h (4 Bft) W 0.93 h 530 W/m 14.0 C 24.7 C 27.8 km/h (4 Bft)
28.07.2007 18:00 23.9 C 56 % 1017.5 hPa 0.0 l/m 14.5 km/h (3 Bft) W 0.28 h 201 W/m 14.6 C 23.9 C 21.3 km/h (4 Bft)
28.07.2007 19:00 22.9 C 58 % 1018.0 hPa 0.0 l/m 11.3 km/h (2 Bft) W 0.13 h 116 W/m 14.2 C 22.9 C 16.7 km/h (3 Bft)
28.07.2007 20:00 21.9 C 61 % 1018.3 hPa 0.0 l/m 7.4 km/h (2 Bft) W 0.00 h 35 W/m 14.0 C 21.9 C 11.3 km/h (2 Bft)
28.07.2007 21:00 21.0 C 65 % 1018.3 hPa 0.0 l/m 5.9 km/h (2 Bft) W-NW 0.00 h 0 W/m 14.2 C 21.0 C 8.9 km/h (2 Bft)
28.07.2007 22:00 20.5 C 70 % 1018.7 hPa 0.0 l/m 1.0 km/h (0 Bft) N-NW 0.00 h 0 W/m 14.9 C 20.5 C 2.1 km/h (1 Bft)
28.07.2007 23:00 19.4 C 77 % 1019.0 hPa 0.0 l/m 1.4 km/h (1 Bft) SO 0.00 h 0 W/m 15.2 C 19.4 C 3.0 km/h (1 Bft)
29.07.2007 00:00 19.3 C 73 % 1018.9 hPa 0.0 l/m 4.4 km/h (1 Bft) S-SO 0.00 h 0 W/m 14.2 C 19.3 C 7.5 km/h (2 Bft)
29.07.2007 01:00 19.5 C 72 % 1018.5 hPa 0.0 l/m 3.3 km/h (1 Bft) W 0.00 h 0 W/m 14.3 C 19.5 C 6.3 km/h (2 Bft)
29.07.2007 02:00 18.7 C 81 % 1018.0 hPa 0.6 l/m 6.1 km/h (2 Bft) W 0.00 h 0 W/m 15.4 C 18.7 C 10.3 km/h (2 Bft)
29.07.2007 03:00 17.5 C 89 % 1017.9 hPa 0.0 l/m 0.4 km/h (0 Bft) W-SW 0.00 h 0 W/m 15.7 C 17.5 C 1.9 km/h (1 Bft)
29.07.2007 04:00 17.5 C 89 % 1017.6 hPa 0.0 l/m 0.7 km/h (0 Bft) O 0.00 h 0 W/m 15.7 C 17.5 C 2.1 km/h (1 Bft)
29.07.2007 05:00 17.3 C 89 % 1017.4 hPa 0.0 l/m 1.1 km/h (1 Bft) O 0.00 h 0 W/m 15.5 C 17.3 C 2.8 km/h (1 Bft)
29.07.2007 06:00 17.1 C 90 % 1017.5 hPa 0.0 l/m 1.0 km/h (0 Bft) S-SO 0.02 h 22 W/m 15.4 C 17.1 C 2.7 km/h (1 Bft)
29.07.2007 07:00 17.7 C 88 % 1017.4 hPa 0.0 l/m 5.1 km/h (1 Bft) W 0.12 h 100 W/m 15.6 C 17.7 C 8.4 km/h (2 Bft)
29.07.2007 08:00 18.9 C 82 % 1017.2 hPa 0.0 l/m 7.7 km/h (2 Bft) W 0.47 h 216 W/m 15.7 C 18.9 C 12.2 km/h (2 Bft)
29.07.2007 09:00 19.9 C 76 % 1016.9 hPa 0.0 l/m 11.0 km/h (2 Bft) W 0.17 h 257 W/m 15.5 C 19.9 C 16.7 km/h (3 Bft)
29.07.2007 10:00 20.7 C 71 % 1016.4 hPa 0.0 l/m 13.5 km/h (3 Bft) W 0.28 h 414 W/m 15.2 C 20.7 C 19.8 km/h (4 Bft)
29.07.2007 11:00 21.6 C 69 % 1016.0 hPa 0.0 l/m 12.5 km/h (3 Bft) W 0.52 h 523 W/m 15.6 C 21.6 C 19.5 km/h (3 Bft)
29.07.2007 12:00 22.8 C 64 % 1015.3 hPa 0.0 l/m 13.7 km/h (3 Bft) W 0.37 h 521 W/m 15.5 C 22.8 C 20.3 km/h (4 Bft)
29.07.2007 13:00 23.0 C 63 % 1014.7 hPa 0.0 l/m 13.8 km/h (3 Bft) W 0.33 h 466 W/m 15.5 C 23.0 C 21.5 km/h (4 Bft)
29.07.2007 14:00 22.4 C 66 % 1014.7 hPa 0.0 l/m 13.3 km/h (3 Bft) W 0.22 h 437 W/m 15.6 C 22.4 C 20.7 km/h (4 Bft)
29.07.2007 15:00 21.2 C 77 % 1014.0 hPa 0.4 l/m 6.6 km/h (2 Bft) W 0.00 h 232 W/m 16.9 C 21.2 C 10.0 km/h (2 Bft)
29.07.2007 16:00 23.0 C 63 % 1012.9 hPa 0.0 l/m 14.2 km/h (3 Bft) W 0.20 h 306 W/m 15.7 C 23.0 C 21.4 km/h (4 Bft)
29.07.2007 17:00 22.3 C 65 % 1012.7 hPa 0.0 l/m 15.3 km/h (3 Bft) W 0.00 h 189 W/m 15.4 C 22.3 C 22.8 km/h (4 Bft)
29.07.2007 18:00 22.1 C 64 % 1012.4 hPa 0.0 l/m 17.6 km/h (3 Bft) W 0.02 h 146 W/m 14.9 C 22.1 C 25.8 km/h (4 Bft)
29.07.2007 19:00 20.8 C 71 % 1012.3 hPa 0.6 l/m 15.8 km/h (3 Bft) W-NW 0.00 h 32 W/m 15.2 C 20.8 C 22.8 km/h (4 Bft)
29.07.2007 20:00 17.4 C 91 % 1013.5 hPa 1.4 l/m 17.5 km/h (3 Bft) W 0.00 h 8 W/m 15.9 C 17.4 C 25.7 km/h (4 Bft)
29.07.2007 21:00 16.2 C 96 % 1013.7 hPa 1.0 l/m 11.6 km/h (2 Bft) W 0.00 h 0 W/m 15.5 C 16.2 C 18.5 km/h (3 Bft)
29.07.2007 22:00 15.8 C 96 % 1013.8 hPa 1.4 l/m 6.8 km/h (2 Bft) W 0.00 h 0 W/m 15.2 C 15.8 C 11.2 km/h (2 Bft)
29.07.2007 23:00 15.7 C 97 % 1013.5 hPa 0.6 l/m 3.3 km/h (1 Bft) W 0.00 h 0 W/m 15.2 C 15.7 C 5.9 km/h (2 Bft)
Min-Datum _ 23.07.07 25.07.07 23.07.07 - 23.07.07 - - - 25.07.07 23.07.07 23.07.07
_ Min-Zeit 05:19 16:34 15:30 - 00:00 - - - 16:34 05:19 00:00
Minimum _ 11.6 C 33 % 999.7 hPa - 0.0 km/h (0 Bft) - - - 7.9 C 11.6 C 0.0 km/h (0 Bft)
Max-Datum _ 26.07.07 23.07.07 25.07.07 24.07.07 28.07.07 - 23.07.07 29.07.07 23.07.07 26.07.07 28.07.07
_ Max-Zeit 17:36 23:27 08:15 12:20 17:15 - 06:05 14:30 15:53 17:36 15:46
Maximum _ 28.6 C 100 % 1019.2 hPa 4.8 l/m 33.9 km/h
W (5 Bft)
- 0.02 h 1155 W/m 18.8 C 28.6 C 48.7 km/h
W (6 Bft)
Durchschnitt _ 19.1 C 77 % 1013.7 hPa #35.6 l/m 5.2 km/h (1 Bft) W #51:57 h 349 W/m 14.3 C 19.1 C 8.4 km/h (2 Bft)
© Kaiko 2007